createdAt,value
2019-02-08T00:02:10.134Z,80.41
2019-02-08T00:04:40.396Z,80.39
2019-02-08T00:07:11.255Z,80.35
2019-02-08T00:09:41.655Z,80.32
2019-02-08T00:12:11.991Z,80.30
2019-02-08T00:14:42.311Z,80.25
2019-02-08T00:17:12.743Z,80.22
2019-02-08T00:19:43.370Z,80.17
2019-02-08T00:22:13.981Z,80.18
2019-02-08T00:24:44.083Z,80.16
2019-02-08T00:27:14.415Z,80.21
2019-02-08T00:29:44.754Z,80.23
2019-02-08T00:32:15.158Z,80.30
2019-02-08T00:34:45.594Z,80.37
2019-02-08T00:37:16.110Z,80.47
2019-02-08T00:39:46.383Z,80.56
2019-02-08T00:42:16.668Z,80.72
2019-02-08T00:44:47.004Z,80.90
2019-02-08T00:47:17.278Z,81.03
2019-02-08T00:49:47.605Z,81.15
2019-02-08T00:52:17.874Z,81.37
2019-02-08T00:54:50.270Z,81.40
2019-02-08T00:57:20.574Z,81.47
2019-02-08T00:59:50.992Z,81.57
2019-02-08T01:02:21.319Z,81.59
2019-02-08T01:04:51.924Z,81.74
2019-02-08T01:07:22.351Z,81.71
2019-02-08T01:09:52.770Z,81.87
2019-02-08T01:12:23.299Z,81.93
2019-02-08T01:14:53.690Z,81.93
2019-02-08T01:17:24.034Z,81.96
2019-02-08T01:19:54.518Z,82.01
2019-02-08T01:22:25.051Z,82.23
2019-02-08T01:24:55.550Z,82.39
2019-02-08T01:27:25.942Z,82.39
2019-02-08T01:29:56.123Z,82.48
2019-02-08T01:32:26.447Z,82.55
2019-02-08T01:34:56.758Z,82.70
2019-02-08T01:37:27.007Z,82.73
2019-02-08T01:39:57.303Z,82.75
2019-02-08T01:42:27.529Z,83.02
2019-02-08T01:44:57.710Z,82.94
2019-02-08T01:47:27.969Z,83.07
2019-02-08T01:49:58.161Z,83.20
2019-02-08T01:52:28.420Z,83.26
2019-02-08T01:54:58.676Z,83.22
2019-02-08T01:57:28.950Z,83.28
2019-02-08T01:59:59.117Z,83.44
2019-02-08T02:02:29.367Z,83.54
2019-02-08T02:04:59.683Z,83.55
2019-02-08T02:07:30.038Z,83.61
2019-02-08T02:10:00.408Z,83.59
2019-02-08T02:12:30.611Z,83.55
2019-02-08T02:15:01.129Z,83.58
2019-02-08T02:17:31.489Z,83.71
2019-02-08T02:20:06.381Z,83.78
2019-02-08T02:22:36.767Z,83.63
2019-02-08T02:25:08.656Z,83.64
2019-02-08T02:27:38.992Z,83.71
2019-02-08T02:30:12.599Z,83.76
2019-02-08T02:32:43.034Z,83.87
2019-02-08T02:35:13.974Z,83.90
2019-02-08T02:37:44.251Z,83.89
2019-02-08T02:40:15.014Z,83.90
2019-02-08T02:42:45.299Z,83.75
2019-02-08T02:45:27.748Z,83.58
2019-02-08T02:47:58.411Z,83.61
2019-02-08T02:50:28.851Z,83.57
2019-02-08T02:52:59.205Z,83.45
2019-02-08T02:55:30.326Z,83.36
2019-02-08T02:58:00.587Z,83.40
2019-02-08T03:00:35.717Z,83.33
2019-02-08T03:03:07.580Z,83.27
2019-02-08T03:05:38.039Z,83.21
2019-02-08T03:08:10.017Z,83.18
2019-02-08T03:10:40.644Z,83.10
2019-02-08T03:13:11.462Z,83.10
2019-02-08T03:15:42.068Z,83.09
2019-02-08T03:18:12.576Z,82.99
2019-02-08T03:20:43.058Z,82.98
2019-02-08T03:23:13.539Z,82.97
2019-02-08T03:25:44.304Z,83.01
2019-02-08T03:28:14.801Z,83.03
2019-02-08T03:30:56.559Z,83.02
2019-02-08T03:33:27.232Z,82.94
2019-02-08T03:35:57.801Z,82.97
2019-02-08T03:38:28.288Z,82.90
2019-02-08T03:40:58.715Z,82.87
2019-02-08T03:43:29.286Z,82.93
2019-02-08T03:45:59.771Z,82.97
2019-02-08T03:48:30.193Z,82.96
2019-02-08T03:51:00.644Z,82.98
2019-02-08T03:53:30.982Z,82.95
2019-02-08T03:56:01.130Z,82.85
2019-02-08T03:58:31.353Z,82.73
2019-02-08T04:01:06.328Z,82.68
2019-02-08T04:03:36.789Z,82.63
2019-02-08T04:06:07.499Z,82.56
2019-02-08T04:08:37.876Z,82.53
2019-02-08T04:11:08.197Z,82.51
2019-02-08T04:13:38.468Z,82.49
2019-02-08T04:16:09.028Z,82.48
2019-02-08T04:18:39.447Z,82.42
2019-02-08T04:21:09.737Z,82.38
2019-02-08T04:23:40.032Z,82.33
2019-02-08T04:26:12.585Z,82.39
2019-02-08T04:28:48.550Z,82.38
2019-02-08T04:31:18.842Z,82.38
2019-02-08T04:36:34.150Z,82.26
2019-02-08T04:39:06.703Z,82.27
2019-02-08T04:41:37.350Z,82.31
2019-02-08T04:44:08.943Z,82.29
2019-02-08T04:46:40.790Z,82.26
2019-02-08T04:49:12.911Z,82.23
2019-02-08T04:51:43.420Z,82.17
2019-02-08T04:54:15.650Z,82.10
2019-02-08T04:56:45.958Z,82.05
2019-02-08T04:59:18.118Z,82.01
2019-02-08T05:01:50.214Z,81.97
2019-02-08T05:04:20.677Z,81.95
2019-02-08T05:06:55.442Z,81.94
2019-02-08T05:09:25.919Z,81.88
2019-02-08T05:11:56.335Z,81.86
2019-02-08T05:14:26.739Z,81.77
2019-02-08T05:16:57.135Z,81.73
2019-02-08T05:19:27.497Z,81.70
2019-02-08T05:21:57.901Z,81.73
2019-02-08T05:24:28.341Z,81.69
2019-02-08T05:26:58.707Z,81.64
2019-02-08T05:29:30.434Z,81.60
2019-02-08T05:32:00.843Z,81.56
2019-02-08T05:34:31.193Z,81.55
2019-02-08T05:37:02.199Z,81.52
2019-02-08T05:39:35.184Z,81.50
2019-02-08T05:42:08.793Z,81.45
2019-02-08T05:44:42.029Z,81.45
2019-02-08T05:47:12.473Z,81.44
2019-02-08T05:49:45.091Z,81.44
2019-02-08T05:52:16.865Z,81.42
2019-02-08T05:54:54.263Z,81.42
2019-02-08T05:57:19.389Z,81.36
2019-02-08T05:59:51.234Z,81.36
2019-02-08T06:02:21.742Z,81.39
2019-02-08T06:04:52.779Z,81.43
2019-02-08T06:07:23.144Z,81.45
2019-02-08T06:10:00.239Z,81.48
2019-02-08T06:12:29.818Z,81.50
2019-02-08T06:15:02.690Z,81.46
2019-02-08T06:17:35.488Z,81.52
2019-02-08T06:20:09.609Z,81.66
2019-02-08T06:22:41.281Z,81.74
2019-02-08T06:25:11.901Z,81.85
2019-02-08T06:27:44.440Z,81.97
2019-02-08T06:30:18.932Z,82.00
2019-02-08T06:32:49.421Z,82.02
2019-02-08T06:35:25.061Z,82.03
2019-02-08T06:37:55.437Z,82.02
2019-02-08T06:40:26.658Z,82.00
2019-02-08T06:42:57.390Z,82.08
2019-02-08T06:45:28.133Z,82.07
2019-02-08T06:47:58.501Z,82.06
2019-02-08T06:50:28.888Z,82.05
2019-02-08T06:53:02.047Z,82.05
2019-02-08T06:55:38.609Z,82.05
2019-02-08T06:58:34.984Z,82.07
2019-02-08T07:01:15.864Z,82.13
2019-02-08T07:04:23.058Z,82.19
2019-02-08T07:07:11.060Z,82.19
2019-02-08T07:10:01.118Z,82.20
2019-02-08T07:12:53.279Z,82.23
2019-02-08T07:15:41.778Z,82.25
2019-02-08T07:18:27.713Z,82.25
2019-02-08T07:21:19.696Z,82.29
2019-02-08T07:24:06.499Z,82.33
2019-02-08T07:27:10.846Z,82.33
2019-02-08T07:30:11.787Z,82.30
2019-02-08T07:33:19.045Z,82.35
2019-02-08T07:36:06.832Z,82.40
2019-02-08T07:38:43.483Z,82.40
2019-02-08T07:41:35.211Z,82.38
2019-02-08T07:44:26.769Z,82.30
2019-02-08T07:47:23.097Z,82.36
2019-02-08T07:50:18.455Z,82.36
2019-02-08T07:52:59.653Z,82.37
2019-02-08T07:55:48.820Z,82.40
2019-02-08T07:58:31.550Z,82.40
2019-02-08T08:01:15.219Z,82.39
2019-02-08T08:04:16.606Z,82.37
2019-02-08T08:07:06.208Z,82.37
2019-02-08T08:09:55.895Z,82.40
2019-02-08T08:12:40.104Z,82.40
2019-02-08T08:18:27.241Z,82.30
2019-02-08T08:21:23.075Z,82.34
2019-02-08T08:24:12.589Z,82.37
2019-02-08T08:26:59.583Z,82.45
2019-02-08T08:29:47.646Z,82.67
2019-02-08T08:32:29.728Z,82.81
2019-02-08T08:35:42.008Z,82.95
2019-02-08T08:39:15.132Z,82.96
2019-02-08T08:42:49.156Z,83.01
2019-02-08T08:50:16.345Z,83.14
2019-02-08T08:53:57.445Z,83.23
2019-02-08T08:57:29.285Z,83.25
2019-02-08T09:01:01.244Z,83.15
2019-02-08T09:04:49.466Z,83.17
2019-02-08T09:08:33.015Z,83.31
2019-02-08T09:12:37.227Z,83.46
2019-02-08T09:15:51.842Z,83.48
2019-02-08T09:19:12.469Z,83.58
2019-02-08T09:22:30.444Z,83.60
2019-02-08T09:26:17.855Z,83.69
2019-02-08T09:30:08.395Z,83.70
2019-02-08T09:33:38.153Z,83.77
2019-02-08T09:37:11.271Z,83.82
2019-02-08T09:40:51.395Z,83.86
2019-02-08T09:44:28.409Z,83.97
2019-02-08T09:47:40.492Z,84.04
2019-02-08T09:51:12.737Z,84.10
2019-02-08T09:54:21.461Z,84.15
2019-02-08T09:57:37.047Z,84.15
2019-02-08T10:00:56.013Z,84.14
2019-02-08T10:04:02.447Z,84.08
2019-02-08T10:07:29.915Z,84.03
2019-02-08T10:11:21.450Z,84.03
2019-02-08T10:15:06.219Z,84.01
2019-02-08T10:18:49.047Z,84.01
2019-02-08T10:22:10.091Z,83.98
2019-02-08T10:25:19.317Z,84.01
2019-02-08T10:29:16.659Z,84.05
2019-02-08T10:32:45.980Z,84.06
2019-02-08T10:36:04.440Z,84.14
2019-02-08T10:39:27.154Z,84.20
2019-02-08T10:43:05.760Z,84.16
2019-02-08T10:46:25.512Z,84.16
2019-02-08T10:49:46.394Z,84.13
2019-02-08T10:53:07.981Z,84.06
2019-02-08T10:56:38.075Z,84.03
2019-02-08T11:00:34.207Z,83.97
2019-02-08T11:04:14.902Z,83.96
2019-02-08T11:07:33.834Z,83.90
2019-02-08T11:10:58.235Z,83.98
2019-02-08T11:14:19.707Z,83.99
2019-02-08T11:17:57.047Z,84.07
2019-02-08T11:20:27.378Z,84.12
2019-02-08T11:23:04.458Z,84.20
2019-02-08T11:25:33.028Z,84.13
2019-02-08T11:28:03.502Z,84.04
2019-02-08T11:30:37.976Z,83.96
2019-02-08T11:33:08.424Z,83.85
2019-02-08T11:35:39.142Z,83.79
2019-02-08T11:38:09.580Z,83.71
2019-02-08T11:40:40.010Z,83.69
2019-02-08T11:43:10.545Z,83.60
2019-02-08T11:45:41.051Z,83.48
2019-02-08T11:48:12.805Z,83.42
2019-02-08T11:50:43.205Z,83.32
2019-02-08T11:53:15.711Z,83.16
2019-02-08T11:55:46.308Z,83.07
2019-02-08T11:58:16.806Z,82.96
2019-02-08T12:00:51.747Z,82.90
2019-02-08T12:03:25.089Z,82.75
2019-02-08T12:05:57.819Z,82.59
2019-02-08T12:08:30.625Z,82.51
2019-02-08T12:11:00.951Z,82.44
2019-02-08T12:13:31.335Z,82.32
2019-02-08T12:16:01.838Z,82.34
2019-02-08T12:18:34.589Z,82.41
2019-02-08T12:21:04.948Z,82.36
2019-02-08T12:23:38.776Z,82.39
2019-02-08T12:26:09.264Z,82.40
2019-02-08T12:29:00.155Z,82.25
2019-02-08T12:32:51.538Z,82.11
2019-02-08T12:35:23.105Z,81.94
2019-02-08T12:37:53.509Z,81.72
2019-02-08T12:40:24.616Z,81.55
2019-02-08T12:42:54.901Z,81.48
2019-02-08T12:45:25.335Z,81.27
2019-02-08T12:47:55.578Z,81.21
2019-02-08T12:50:25.921Z,81.14
2019-02-08T12:52:56.203Z,81.04
2019-02-08T12:55:26.503Z,81.10
2019-02-08T12:57:56.714Z,81.01
2019-02-08T13:00:27.401Z,80.95
2019-02-08T13:02:57.632Z,80.94
2019-02-08T13:05:28.100Z,80.90
2019-02-08T13:07:58.350Z,80.84
2019-02-08T13:10:28.826Z,80.89
2019-02-08T13:13:03.757Z,80.93
2019-02-08T13:21:56.752Z,80.99
2019-02-08T13:24:28.774Z,81.06
2019-02-08T13:26:59.385Z,81.05
2019-02-08T13:29:30.816Z,81.22
2019-02-08T13:32:06.282Z,81.50
2019-02-08T13:34:39.413Z,81.72
2019-02-08T13:41:06.322Z,82.08
2019-02-08T13:43:46.593Z,82.23
2019-02-08T13:46:23.616Z,82.36
2019-02-08T13:48:58.556Z,82.29
2019-02-08T13:51:30.973Z,82.42
2019-02-08T13:54:02.893Z,82.50
2019-02-08T13:56:36.587Z,82.60
2019-02-08T13:59:09.117Z,82.71
2019-02-08T14:01:39.765Z,82.85
2019-02-08T14:04:11.774Z,82.94
2019-02-08T14:06:42.196Z,82.96
2019-02-08T14:09:12.972Z,82.99
2019-02-08T14:11:43.463Z,83.09
2019-02-08T14:14:13.924Z,83.11
2019-02-08T14:16:44.350Z,83.10
2019-02-08T14:19:15.515Z,83.11
2019-02-08T14:21:48.600Z,83.13
2019-02-08T14:24:32.951Z,83.12
2019-02-08T14:26:56.274Z,83.18
2019-02-08T14:29:26.507Z,83.19
2019-02-08T14:31:56.750Z,83.22
2019-02-08T14:34:27.020Z,83.28
2019-02-08T14:36:57.311Z,83.30
2019-02-08T14:39:27.690Z,83.37
2019-02-08T14:42:00.020Z,83.44
2019-02-08T14:44:30.795Z,83.46
2019-02-08T14:47:01.086Z,83.45
2019-02-08T14:49:31.306Z,83.44
2019-02-08T14:52:04.417Z,83.40
2019-02-08T14:54:34.941Z,83.37
2019-02-08T14:57:08.088Z,83.35
2019-02-08T14:59:38.395Z,83.29
2019-02-08T15:02:08.667Z,83.22
2019-02-08T15:04:39.024Z,83.14
2019-02-08T15:07:10.542Z,83.10
2019-02-08T15:09:40.822Z,82.95
2019-02-08T15:12:11.116Z,82.86
2019-02-08T15:14:41.452Z,82.79
2019-02-08T15:17:11.604Z,82.63
2019-02-08T15:19:41.936Z,82.59
2019-02-08T15:22:12.195Z,82.50
2019-02-08T15:24:42.525Z,82.39
2019-02-08T15:27:12.732Z,82.27
2019-02-08T15:29:43.014Z,82.13
2019-02-08T15:32:13.387Z,82.05
2019-02-08T15:34:44.411Z,82.02
2019-02-08T15:37:14.711Z,81.95
2019-02-08T15:39:44.958Z,81.86
2019-02-08T15:42:15.244Z,81.67
2019-02-08T15:44:45.459Z,81.61
2019-02-08T15:47:15.747Z,81.41
2019-02-08T15:49:46.036Z,81.34
2019-02-08T15:52:16.358Z,81.28
2019-02-08T15:54:46.781Z,81.24
2019-02-08T15:57:17.086Z,81.18
2019-02-08T15:59:47.243Z,81.05
2019-02-08T16:02:17.538Z,80.93
2019-02-08T16:04:47.755Z,80.69
2019-02-08T16:07:18.088Z,80.55
2019-02-08T16:09:48.337Z,80.23
2019-02-08T16:12:27.059Z,80.17
2019-02-08T16:14:57.533Z,80.09
2019-02-08T16:17:27.978Z,80.05
2019-02-08T16:19:58.516Z,79.89
2019-02-08T16:22:29.036Z,79.75
2019-02-08T16:25:01.339Z,79.67
2019-02-08T16:27:38.759Z,79.60
2019-02-08T16:30:04.711Z,79.46
2019-02-08T16:32:35.285Z,79.39
2019-02-08T16:35:07.218Z,79.29
2019-02-08T16:37:37.679Z,79.30
2019-02-08T16:40:14.138Z,79.12
2019-02-08T16:42:45.648Z,79.08
2019-02-08T16:45:23.571Z,79.04
2019-02-08T16:47:55.784Z,78.89
2019-02-08T16:50:27.938Z,78.69
2019-02-08T16:52:58.527Z,78.76
2019-02-08T16:55:30.487Z,78.67
2019-02-08T16:58:01.406Z,78.62
2019-02-08T17:00:34.574Z,78.57
2019-02-08T17:03:09.365Z,78.53
2019-02-08T17:05:41.315Z,78.44
2019-02-08T17:08:13.899Z,78.44
2019-02-08T17:10:44.234Z,78.39
2019-02-08T17:13:14.461Z,78.31
2019-02-08T17:15:44.911Z,78.25
2019-02-08T17:18:15.115Z,78.24
2019-02-08T17:20:47.275Z,78.25
2019-02-08T17:23:17.627Z,78.18
2019-02-08T17:25:50.542Z,78.12
2019-02-08T17:28:21.424Z,78.05
2019-02-08T17:30:51.803Z,77.98
2019-02-08T17:33:22.145Z,77.92
2019-02-08T17:35:52.639Z,77.97
2019-02-08T17:38:22.833Z,77.91
2019-02-08T17:40:53.248Z,77.86
2019-02-08T17:43:23.615Z,77.79
2019-02-08T17:45:54.342Z,77.73
2019-02-08T17:48:24.719Z,77.68
2019-02-08T17:50:55.010Z,77.59
2019-02-08T17:53:25.625Z,77.55
2019-02-08T17:55:55.959Z,77.50
2019-02-08T17:58:26.307Z,77.40
2019-02-08T18:00:58.359Z,77.37
2019-02-08T18:03:30.248Z,77.18
2019-02-08T18:06:00.631Z,77.13
2019-02-08T18:08:30.849Z,77.08
2019-02-08T18:11:01.019Z,76.93
2019-02-08T18:13:31.198Z,76.85
2019-02-08T18:16:01.473Z,76.83
2019-02-08T18:18:33.356Z,76.78
2019-02-08T18:21:08.199Z,76.80
2019-02-08T18:23:38.675Z,76.70
2019-02-08T18:26:09.307Z,76.65
2019-02-08T18:28:39.790Z,76.56
2019-02-08T18:31:10.340Z,76.48
2019-02-08T18:33:40.976Z,76.49
2019-02-08T18:36:11.490Z,76.47
2019-02-08T18:38:41.878Z,76.39
2019-02-08T18:41:12.314Z,76.32
2019-02-08T18:43:42.867Z,76.33
2019-02-08T18:46:13.405Z,76.30
2019-02-08T18:48:43.777Z,76.28
2019-02-08T18:51:13.935Z,76.21
2019-02-08T18:53:44.088Z,76.16
2019-02-08T18:56:14.437Z,76.01
2019-02-08T18:58:44.720Z,76.03
2019-02-08T19:01:14.944Z,76.02
2019-02-08T19:03:45.165Z,76.02
2019-02-08T19:06:15.404Z,75.91
2019-02-08T19:08:45.611Z,75.97
2019-02-08T19:11:15.866Z,75.92
2019-02-08T19:13:46.087Z,75.94
2019-02-08T19:16:16.930Z,75.92
2019-02-08T19:18:47.428Z,75.88
2019-02-08T19:21:18.049Z,75.83
2019-02-08T19:23:48.482Z,75.79
2019-02-08T19:26:19.010Z,75.82
2019-02-08T19:28:49.469Z,75.89
2019-02-08T19:31:20.170Z,75.97
2019-02-08T19:33:50.814Z,76.03
2019-02-08T19:36:21.267Z,76.02
2019-02-08T19:38:51.783Z,76.01
2019-02-08T19:41:22.286Z,75.98
2019-02-08T19:43:52.839Z,75.98
2019-02-08T19:46:26.861Z,76.07
2019-02-08T19:48:57.458Z,76.15
2019-02-08T19:51:27.995Z,76.21
2019-02-08T19:53:58.439Z,76.28
2019-02-08T19:56:28.956Z,76.33
2019-02-08T19:59:01.854Z,76.41
2019-02-08T20:01:32.290Z,76.62
2019-02-08T20:04:02.652Z,76.92
2019-02-08T20:06:33.116Z,77.24
2019-02-08T20:09:04.628Z,77.62
2019-02-08T20:11:35.138Z,77.82
2019-02-08T20:14:09.991Z,78.11
2019-02-08T20:16:40.370Z,78.31
2019-02-08T20:19:10.874Z,78.58
2019-02-08T20:21:41.331Z,78.75
2019-02-08T20:24:11.864Z,79.05
2019-02-08T20:26:42.335Z,79.24
2019-02-08T20:29:12.781Z,79.48
2019-02-08T20:31:43.285Z,79.68
2019-02-08T20:34:13.864Z,79.91
2019-02-08T20:36:44.505Z,80.07
2019-02-08T20:39:15.242Z,80.34
2019-02-08T20:41:45.856Z,80.42
2019-02-08T20:44:16.293Z,80.60
2019-02-08T20:46:46.783Z,80.74
2019-02-08T20:49:17.310Z,80.87
2019-02-08T20:51:47.602Z,80.93
2019-02-08T20:54:17.898Z,80.95
2019-02-08T20:56:48.200Z,81.06
2019-02-08T20:59:18.496Z,81.24
2019-02-08T21:01:48.714Z,81.43
2019-02-08T21:04:18.963Z,81.53
2019-02-08T21:06:49.212Z,81.58
2019-02-08T21:09:19.411Z,81.73
2019-02-08T21:11:50.117Z,81.82
2019-02-08T21:14:20.273Z,81.83
2019-02-08T21:16:53.136Z,81.85
2019-02-08T21:19:23.580Z,81.95
2019-02-08T21:21:54.093Z,82.01
2019-02-08T21:24:24.499Z,81.97
2019-02-08T21:26:54.973Z,82.08
2019-02-08T21:29:25.483Z,82.19
2019-02-08T21:31:56.112Z,82.28
2019-02-08T21:34:29.441Z,82.36
2019-02-08T21:36:59.918Z,82.46
2019-02-08T21:39:30.595Z,82.63
2019-02-08T21:42:01.077Z,82.76
2019-02-08T21:44:31.798Z,82.83
2019-02-08T21:47:02.500Z,82.93
2019-02-08T21:49:33.007Z,82.91
2019-02-08T21:52:03.582Z,82.96
2019-02-08T21:54:34.042Z,83.04
2019-02-08T21:57:04.655Z,83.07
2019-02-08T21:59:35.175Z,83.12
2019-02-08T22:02:06.883Z,83.11
2019-02-08T22:04:37.366Z,83.10
2019-02-08T22:07:07.950Z,83.13
2019-02-08T22:09:38.173Z,83.28
2019-02-08T22:12:08.457Z,83.35
2019-02-08T22:14:38.768Z,83.51
2019-02-08T22:17:09.083Z,83.58
2019-02-08T22:19:39.226Z,83.69
2019-02-08T22:22:10.043Z,83.71
2019-02-08T22:24:40.406Z,83.82
2019-02-08T22:27:10.569Z,83.91
2019-02-08T22:29:40.747Z,84.02
2019-02-08T22:32:10.956Z,84.01
2019-02-08T22:34:41.122Z,84.04
2019-02-08T22:37:11.376Z,84.04
2019-02-08T22:39:41.612Z,84.23
2019-02-08T22:42:11.868Z,84.22
2019-02-08T22:44:41.996Z,84.27
2019-02-08T22:47:12.209Z,84.25
2019-02-08T22:49:42.389Z,84.33
2019-02-08T22:52:12.593Z,84.34
2019-02-08T22:54:42.765Z,84.42
2019-02-08T22:57:12.923Z,84.48
2019-02-08T22:59:43.136Z,84.57
2019-02-08T23:02:13.922Z,84.60
2019-02-08T23:04:44.840Z,84.63
2019-02-08T23:07:15.112Z,84.60
2019-02-08T23:09:45.326Z,84.54
2019-02-08T23:12:15.648Z,84.51
2019-02-08T23:14:45.770Z,84.51
2019-02-08T23:17:16.086Z,84.56
2019-02-08T23:19:46.347Z,84.58
2019-02-08T23:22:16.658Z,84.55
2019-02-08T23:24:46.871Z,84.51
2019-02-08T23:27:17.214Z,84.49
2019-02-08T23:29:47.349Z,84.43
2019-02-08T23:32:17.546Z,84.40
2019-02-08T23:34:47.871Z,84.34
2019-02-08T23:37:25.728Z,84.27
2019-02-08T23:39:50.045Z,84.21
2019-02-08T23:42:20.295Z,84.15
2019-02-08T23:44:50.531Z,84.07
2019-02-08T23:47:20.774Z,84.00
2019-02-08T23:49:50.995Z,83.97
2019-02-08T23:52:21.275Z,83.94
2019-02-08T23:54:51.423Z,83.95
2019-02-08T23:57:21.645Z,83.97
2019-02-08T23:59:51.913Z,84.03
